createdAt,value
2022-11-30T00:00:10.312Z,7.60
2022-11-30T00:02:37.331Z,7.60
2022-11-30T00:05:03.986Z,7.50
2022-11-30T00:07:30.656Z,7.50
2022-11-30T00:09:57.267Z,7.60
2022-11-30T00:12:23.892Z,7.50
2022-11-30T00:14:50.541Z,7.50
2022-11-30T00:17:17.332Z,7.50
2022-11-30T00:19:43.971Z,7.50
2022-11-30T00:22:10.712Z,7.50
2022-11-30T00:24:37.351Z,7.50
2022-11-30T00:27:04.035Z,7.50
2022-11-30T00:29:30.652Z,7.50
2022-11-30T00:31:57.212Z,7.50
2022-11-30T00:34:23.847Z,7.40
2022-11-30T00:36:50.620Z,7.40
2022-11-30T00:39:17.328Z,7.40
2022-11-30T00:41:43.968Z,7.40
2022-11-30T00:44:10.670Z,7.40
2022-11-30T00:46:37.477Z,7.40
2022-11-30T00:49:04.430Z,7.30
2022-11-30T00:51:31.079Z,7.30
2022-11-30T00:53:57.754Z,7.30
2022-11-30T00:56:25.018Z,7.40
2022-11-30T00:58:51.717Z,7.40
2022-11-30T01:01:18.499Z,7.30
2022-11-30T01:03:45.911Z,7.30
2022-11-30T01:06:12.495Z,7.30
2022-11-30T01:08:39.260Z,7.30
2022-11-30T01:11:05.887Z,7.30
2022-11-30T01:13:32.523Z,7.30
2022-11-30T01:15:59.176Z,7.40
2022-11-30T01:18:25.794Z,7.30
2022-11-30T01:20:52.447Z,7.30
2022-11-30T01:23:19.039Z,7.30
2022-11-30T01:25:45.691Z,7.30
2022-11-30T01:28:12.285Z,7.40
2022-11-30T01:30:39.000Z,7.40
2022-11-30T01:33:06.082Z,7.30
2022-11-30T01:35:33.140Z,7.30
2022-11-30T01:37:59.808Z,7.30
2022-11-30T01:40:26.461Z,7.40
2022-11-30T01:42:53.162Z,7.40
2022-11-30T01:45:19.757Z,7.40
2022-11-30T01:47:46.402Z,7.30
2022-11-30T01:50:13.029Z,7.30
2022-11-30T01:52:39.730Z,7.40
2022-11-30T01:55:06.405Z,7.40
2022-11-30T01:57:33.102Z,7.40
2022-11-30T01:59:59.729Z,7.40
2022-11-30T02:02:26.412Z,7.30
2022-11-30T02:04:53.142Z,7.30
2022-11-30T02:07:19.927Z,7.30
2022-11-30T02:09:46.620Z,7.20
2022-11-30T02:12:13.837Z,7.20
2022-11-30T02:14:40.544Z,7.20
2022-11-30T02:17:07.253Z,7.20
2022-11-30T02:19:33.872Z,7.10
2022-11-30T02:22:00.519Z,7.10
2022-11-30T02:24:27.172Z,7.10
2022-11-30T02:26:53.906Z,7.20
2022-11-30T02:29:20.621Z,7.10
2022-11-30T02:31:47.262Z,7.10
2022-11-30T02:34:13.905Z,7.10
2022-11-30T02:36:40.552Z,7.10
2022-11-30T02:39:07.197Z,7.10
2022-11-30T02:41:37.889Z,7.10
2022-11-30T02:44:05.073Z,7.10
2022-11-30T02:46:31.790Z,7.10
2022-11-30T02:48:58.420Z,7.10
2022-11-30T02:51:25.081Z,7.10
2022-11-30T02:53:51.755Z,7.00
2022-11-30T02:56:18.406Z,7.00
2022-11-30T02:58:45.130Z,7.00
2022-11-30T03:01:11.834Z,7.00
2022-11-30T03:03:38.455Z,7.00
2022-11-30T03:06:05.112Z,7.00
2022-11-30T03:08:31.775Z,7.00
2022-11-30T03:10:58.399Z,7.00
2022-11-30T03:13:25.091Z,7.00
2022-11-30T03:15:51.758Z,7.00
2022-11-30T03:18:18.427Z,7.00
2022-11-30T03:20:45.135Z,7.00
2022-11-30T03:23:11.915Z,7.00
2022-11-30T03:25:38.514Z,7.00
2022-11-30T03:28:05.206Z,7.00
2022-11-30T03:30:31.816Z,7.00
2022-11-30T03:32:58.435Z,7.00
2022-11-30T03:35:25.109Z,7.00
2022-11-30T03:37:51.734Z,7.00
2022-11-30T03:40:18.865Z,7.00
2022-11-30T03:42:45.560Z,7.00
2022-11-30T03:45:12.390Z,7.00
2022-11-30T03:47:38.997Z,7.00
2022-11-30T03:50:05.666Z,7.00
2022-11-30T03:52:32.283Z,7.00
2022-11-30T03:54:58.890Z,7.10
2022-11-30T03:57:25.566Z,7.10
2022-11-30T03:59:52.175Z,7.00
2022-11-30T04:02:18.821Z,7.10
2022-11-30T04:04:45.882Z,7.10
2022-11-30T04:07:12.700Z,7.10
2022-11-30T04:09:39.385Z,7.10
2022-11-30T04:12:06.081Z,7.10
2022-11-30T04:14:33.013Z,7.00
2022-11-30T04:16:59.787Z,7.10
2022-11-30T04:19:26.451Z,7.10
2022-11-30T04:21:53.152Z,7.10
2022-11-30T04:24:19.739Z,7.20
2022-11-30T04:26:46.476Z,7.20
2022-11-30T04:29:13.142Z,7.10
2022-11-30T04:31:39.821Z,7.10
2022-11-30T04:34:06.472Z,7.20
2022-11-30T04:36:33.053Z,7.10
2022-11-30T04:38:59.657Z,7.10
2022-11-30T04:41:26.299Z,7.10
2022-11-30T04:43:52.943Z,7.10
2022-11-30T04:46:19.636Z,7.10
2022-11-30T04:48:46.360Z,7.10
2022-11-30T04:51:13.102Z,7.10
2022-11-30T04:53:39.731Z,7.10
2022-11-30T04:56:06.980Z,7.10
2022-11-30T04:58:33.757Z,7.10
2022-11-30T05:01:00.400Z,7.10
2022-11-30T05:03:27.024Z,7.00
2022-11-30T05:05:53.656Z,7.10
2022-11-30T05:08:20.450Z,7.00
2022-11-30T05:10:52.781Z,7.00
2022-11-30T05:13:19.717Z,6.90
2022-11-30T05:15:46.927Z,6.90
2022-11-30T05:18:15.883Z,6.90
2022-11-30T05:20:42.600Z,6.80
2022-11-30T05:23:09.314Z,6.90
2022-11-30T05:25:35.944Z,6.80
2022-11-30T05:28:02.563Z,6.80
2022-11-30T05:30:29.245Z,6.80
2022-11-30T05:32:55.903Z,6.70
2022-11-30T05:35:23.493Z,6.80
2022-11-30T05:37:50.077Z,6.80
2022-11-30T05:40:16.732Z,6.70
2022-11-30T05:42:43.404Z,6.80
2022-11-30T05:45:10.029Z,6.80
2022-11-30T05:47:36.709Z,6.80
2022-11-30T05:50:03.308Z,6.80
2022-11-30T05:52:29.936Z,6.80
2022-11-30T05:54:56.640Z,6.80
2022-11-30T05:57:23.286Z,6.80
2022-11-30T05:59:49.953Z,6.80
2022-11-30T06:02:16.773Z,6.80
2022-11-30T06:04:43.462Z,6.80
2022-11-30T06:07:13.050Z,6.80
2022-11-30T06:09:39.967Z,6.80
2022-11-30T06:12:06.621Z,6.80
2022-11-30T06:14:33.234Z,6.80
2022-11-30T06:16:59.888Z,6.80
2022-11-30T06:19:26.447Z,6.90
2022-11-30T06:21:53.081Z,6.90
2022-11-30T06:24:19.708Z,6.90
2022-11-30T06:26:46.468Z,6.90
2022-11-30T06:29:13.201Z,6.90
2022-11-30T06:31:39.896Z,6.90
2022-11-30T06:34:06.702Z,6.90
2022-11-30T06:36:36.199Z,6.90
2022-11-30T06:39:03.236Z,6.90
2022-11-30T06:41:29.964Z,6.90
2022-11-30T06:43:56.560Z,6.90
2022-11-30T06:46:24.110Z,6.80
2022-11-30T06:48:57.105Z,6.90
2022-11-30T06:51:23.839Z,6.90
2022-11-30T06:53:50.507Z,6.90
2022-11-30T06:56:17.152Z,6.90
2022-11-30T06:58:43.807Z,6.90
2022-11-30T07:01:10.625Z,6.90
2022-11-30T07:03:37.358Z,6.80
2022-11-30T07:06:04.097Z,6.80
2022-11-30T07:08:30.753Z,6.80
2022-11-30T07:10:59.924Z,6.80
2022-11-30T07:13:26.765Z,6.80
2022-11-30T07:15:53.504Z,6.80
2022-11-30T07:18:20.290Z,6.90
2022-11-30T07:20:46.924Z,6.80
2022-11-30T07:23:32.296Z,6.80
2022-11-30T07:26:08.255Z,6.80
2022-11-30T07:28:35.339Z,6.80
2022-11-30T07:31:01.930Z,6.80
2022-11-30T07:33:28.800Z,6.80
2022-11-30T07:35:55.481Z,6.80
2022-11-30T07:38:22.265Z,6.80
2022-11-30T07:40:49.083Z,6.80
2022-11-30T07:43:16.234Z,6.70
2022-11-30T07:45:45.825Z,6.70
2022-11-30T07:48:12.564Z,6.70
2022-11-30T07:50:39.235Z,6.70
2022-11-30T07:53:05.933Z,6.80
2022-11-30T07:55:32.616Z,6.70
2022-11-30T07:57:59.422Z,6.80
2022-11-30T08:00:26.179Z,6.80
2022-11-30T08:02:52.889Z,6.80
2022-11-30T08:05:19.784Z,6.90
2022-11-30T08:07:46.503Z,6.80
2022-11-30T08:10:13.266Z,6.80
2022-11-30T08:12:39.979Z,6.80
2022-11-30T08:15:28.906Z,6.80
2022-11-30T08:17:55.352Z,6.90
2022-11-30T08:20:22.394Z,6.70
2022-11-30T08:22:49.764Z,6.90
2022-11-30T08:25:16.444Z,6.70
2022-11-30T08:27:43.163Z,6.80
2022-11-30T08:30:09.863Z,6.80
2022-11-30T08:32:36.496Z,6.80
2022-11-30T08:35:03.174Z,6.80
2022-11-30T08:37:29.863Z,6.70
2022-11-30T08:39:56.549Z,6.80
2022-11-30T08:42:23.429Z,6.90
2022-11-30T08:44:50.073Z,6.80
2022-11-30T08:47:16.943Z,6.80
2022-11-30T08:49:43.682Z,6.70
2022-11-30T08:52:18.705Z,6.70
2022-11-30T08:54:46.651Z,6.70
2022-11-30T08:57:13.842Z,6.70
2022-11-30T08:59:40.620Z,6.80
2022-11-30T09:02:07.484Z,6.80
2022-11-30T09:04:41.669Z,6.80
2022-11-30T09:07:09.751Z,6.90
2022-11-30T09:09:36.900Z,6.80
2022-11-30T09:12:03.739Z,6.80
2022-11-30T09:14:30.448Z,6.70
2022-11-30T09:16:57.239Z,6.80
2022-11-30T09:19:23.961Z,6.90
2022-11-30T09:21:52.250Z,6.70
2022-11-30T09:24:19.304Z,6.60
2022-11-30T09:26:46.166Z,6.70
2022-11-30T09:29:12.841Z,6.70
2022-11-30T09:31:39.535Z,6.70
2022-11-30T09:34:06.237Z,6.70
2022-11-30T09:36:34.216Z,6.60
2022-11-30T09:39:00.931Z,6.70
2022-11-30T09:41:27.594Z,6.70
2022-11-30T09:43:54.294Z,6.80
2022-11-30T09:46:20.969Z,6.80
2022-11-30T09:48:47.688Z,6.80
2022-11-30T09:51:15.680Z,6.80
2022-11-30T09:53:42.471Z,6.90
2022-11-30T09:56:09.131Z,6.80
2022-11-30T09:58:35.837Z,6.80
2022-11-30T10:01:06.648Z,6.90
2022-11-30T10:03:34.445Z,6.90
2022-11-30T10:06:01.229Z,6.90
2022-11-30T10:08:27.913Z,7.00
2022-11-30T10:10:54.512Z,6.80
2022-11-30T10:13:21.325Z,6.90
2022-11-30T10:15:48.529Z,6.90
2022-11-30T10:18:15.238Z,7.00
2022-11-30T10:20:42.008Z,7.10
2022-11-30T10:23:08.612Z,7.10
2022-11-30T10:25:35.331Z,7.10
2022-11-30T10:28:24.011Z,7.10
2022-11-30T10:30:48.940Z,7.10
2022-11-30T10:33:15.633Z,7.20
2022-11-30T10:35:42.309Z,7.20
2022-11-30T10:38:08.933Z,7.00
2022-11-30T10:40:35.972Z,6.80
2022-11-30T10:43:02.676Z,6.90
2022-11-30T10:45:29.315Z,7.00
2022-11-30T10:47:56.016Z,7.00
2022-11-30T10:50:22.727Z,7.10
2022-11-30T10:52:49.356Z,7.30
2022-11-30T10:55:16.214Z,7.50
2022-11-30T10:57:42.870Z,7.40
2022-11-30T11:00:09.523Z,7.60
2022-11-30T11:02:36.306Z,7.40
2022-11-30T11:05:03.024Z,7.30
2022-11-30T11:07:29.735Z,7.50
2022-11-30T11:09:56.704Z,7.50
2022-11-30T11:12:23.501Z,7.50
2022-11-30T11:14:50.230Z,7.60
2022-11-30T11:17:16.897Z,7.60
2022-11-30T11:19:43.853Z,7.70
2022-11-30T11:22:10.832Z,7.70
2022-11-30T11:24:37.495Z,7.80
2022-11-30T11:27:04.351Z,7.70
2022-11-30T11:29:34.162Z,7.70
2022-11-30T11:32:03.233Z,7.70
2022-11-30T11:34:31.771Z,7.80
2022-11-30T11:36:58.528Z,7.90
2022-11-30T11:39:25.125Z,7.90
2022-11-30T11:41:52.651Z,8.00
2022-11-30T11:44:21.520Z,8.00
2022-11-30T11:46:48.241Z,8.00
2022-11-30T11:49:14.995Z,8.00
2022-11-30T11:51:41.638Z,8.00
2022-11-30T11:54:08.372Z,7.90
2022-11-30T11:56:35.115Z,7.90
2022-11-30T11:59:01.794Z,7.90
2022-11-30T12:01:39.829Z,7.70
2022-11-30T12:04:07.278Z,7.80
2022-11-30T12:06:34.421Z,8.00
2022-11-30T12:09:01.142Z,8.00
2022-11-30T12:11:27.715Z,8.10
2022-11-30T12:13:54.543Z,8.20
2022-11-30T12:16:21.627Z,8.20
2022-11-30T12:18:48.493Z,8.10
2022-11-30T12:21:15.266Z,8.10
2022-11-30T12:23:42.248Z,8.10
2022-11-30T12:26:09.278Z,8.30
2022-11-30T12:28:36.132Z,8.30
2022-11-30T12:31:04.123Z,8.40
2022-11-30T12:33:30.800Z,8.50
2022-11-30T12:35:59.970Z,8.20
2022-11-30T12:38:26.776Z,8.30
2022-11-30T12:40:55.975Z,8.30
2022-11-30T12:43:22.616Z,8.40
2022-11-30T12:45:49.247Z,8.50
2022-11-30T12:48:15.957Z,8.50
2022-11-30T12:50:42.608Z,8.50
2022-11-30T12:53:09.299Z,8.60
2022-11-30T12:55:36.089Z,8.60
2022-11-30T12:58:05.164Z,8.60
2022-11-30T13:00:32.013Z,8.70
2022-11-30T13:02:58.722Z,8.60
2022-11-30T13:05:25.528Z,8.60
2022-11-30T13:07:52.187Z,8.60
2022-11-30T13:10:19.135Z,8.60
2022-11-30T13:12:45.784Z,8.70
2022-11-30T13:15:15.502Z,8.80
2022-11-30T13:17:42.647Z,8.80
2022-11-30T13:20:09.363Z,8.90
2022-11-30T13:22:35.982Z,8.90
2022-11-30T13:25:02.574Z,8.90
2022-11-30T13:27:29.222Z,8.90
2022-11-30T13:29:55.926Z,8.90
2022-11-30T13:32:56.295Z,9.00
2022-11-30T13:35:09.178Z,8.90
2022-11-30T13:37:35.792Z,9.00
2022-11-30T13:40:02.383Z,9.00
2022-11-30T13:42:30.112Z,9.00
2022-11-30T13:44:56.776Z,9.00
2022-11-30T13:47:23.451Z,9.00
2022-11-30T13:49:50.046Z,9.00
2022-11-30T13:52:24.544Z,9.00
2022-11-30T13:54:53.906Z,9.00
2022-11-30T13:57:20.533Z,9.00
2022-11-30T13:59:47.212Z,9.00
2022-11-30T14:04:58.111Z,9.10
2022-11-30T14:07:24.798Z,9.00
2022-11-30T14:09:51.525Z,9.10
2022-11-30T14:12:18.160Z,9.00
2022-11-30T14:14:46.507Z,9.00
2022-11-30T14:17:13.447Z,9.00
2022-11-30T14:19:40.133Z,8.90
2022-11-30T14:22:06.831Z,8.80
2022-11-30T14:24:33.493Z,8.80
2022-11-30T14:27:00.322Z,8.70
2022-11-30T14:29:27.027Z,8.70
2022-11-30T14:31:53.679Z,8.70
2022-11-30T14:34:20.339Z,8.70
2022-11-30T14:36:47.098Z,8.70
2022-11-30T14:39:13.964Z,8.80
2022-11-30T14:41:40.648Z,8.80
2022-11-30T14:44:07.607Z,8.80
2022-11-30T14:46:36.028Z,8.80
2022-11-30T14:49:02.775Z,8.70
2022-11-30T14:51:29.401Z,8.70
2022-11-30T14:53:56.105Z,8.50
2022-11-30T14:56:22.758Z,8.40
2022-11-30T14:58:49.403Z,8.40
2022-11-30T15:01:16.086Z,8.30
2022-11-30T15:03:42.792Z,8.20
2022-11-30T15:06:09.522Z,8.20
2022-11-30T15:08:36.572Z,8.10
2022-11-30T15:11:03.633Z,8.00
2022-11-30T15:13:30.829Z,7.90
2022-11-30T15:15:57.755Z,7.80
2022-11-30T15:18:24.477Z,7.80
2022-11-30T15:20:51.150Z,7.60
2022-11-30T15:23:17.774Z,7.50
2022-11-30T15:25:44.786Z,7.50
2022-11-30T15:28:11.492Z,7.50
2022-11-30T15:30:38.153Z,7.40
2022-11-30T15:33:04.791Z,7.30
2022-11-30T15:35:50.377Z,7.20
2022-11-30T15:38:18.303Z,7.10
2022-11-30T15:40:47.765Z,7.10
2022-11-30T15:43:18.468Z,7.00
2022-11-30T15:45:45.385Z,6.90
2022-11-30T15:48:12.045Z,6.80
2022-11-30T15:50:38.711Z,6.70
2022-11-30T15:53:05.354Z,6.70
2022-11-30T15:55:32.039Z,6.60
2022-11-30T15:57:58.692Z,6.60
2022-11-30T16:00:25.432Z,6.60
2022-11-30T16:02:52.210Z,6.50
2022-11-30T16:05:19.768Z,6.40
2022-11-30T16:07:46.490Z,6.40
2022-11-30T16:10:13.245Z,6.40
2022-11-30T16:12:39.866Z,6.40
2022-11-30T16:15:06.582Z,6.30
2022-11-30T16:17:33.269Z,6.20
2022-11-30T16:19:59.897Z,6.20
2022-11-30T16:22:26.540Z,6.00
2022-11-30T16:24:53.235Z,6.00
2022-11-30T16:27:20.213Z,6.00
2022-11-30T16:29:52.010Z,5.90
2022-11-30T16:32:19.574Z,5.80
2022-11-30T16:34:46.290Z,5.80
2022-11-30T16:37:14.680Z,5.80
2022-11-30T16:39:41.371Z,5.70
2022-11-30T16:42:08.047Z,5.70
2022-11-30T16:44:34.689Z,5.70
2022-11-30T16:47:01.396Z,5.60
2022-11-30T16:49:28.603Z,5.70
2022-11-30T16:51:55.259Z,5.90
2022-11-30T16:54:21.944Z,5.90
2022-11-30T16:56:48.692Z,5.90
2022-11-30T16:59:16.979Z,5.90
2022-11-30T17:01:44.002Z,5.80
2022-11-30T17:04:10.796Z,5.80
2022-11-30T17:06:37.496Z,5.80
2022-11-30T17:09:04.389Z,5.70
2022-11-30T17:11:31.166Z,5.70
2022-11-30T17:13:57.848Z,5.70
2022-11-30T17:16:24.717Z,5.70
2022-11-30T17:18:51.482Z,5.70
2022-11-30T17:21:18.175Z,5.80
2022-11-30T17:23:44.887Z,5.80
2022-11-30T17:26:11.605Z,5.90
2022-11-30T17:28:38.332Z,6.00
2022-11-30T17:31:05.010Z,5.90
2022-11-30T17:33:31.702Z,6.00
2022-11-30T17:35:58.931Z,6.10
2022-11-30T17:38:25.882Z,6.10
2022-11-30T17:40:52.572Z,6.20
2022-11-30T17:43:19.288Z,6.10
2022-11-30T17:45:46.253Z,6.10
2022-11-30T17:48:14.221Z,6.10
2022-11-30T17:50:40.911Z,6.10
2022-11-30T17:53:07.613Z,6.10
2022-11-30T17:55:34.270Z,6.10
2022-11-30T17:58:01.118Z,6.10
2022-11-30T18:00:27.812Z,6.10
2022-11-30T18:02:54.467Z,6.10
2022-11-30T18:05:21.177Z,6.10
2022-11-30T18:07:47.981Z,6.00
2022-11-30T18:10:14.651Z,6.00
2022-11-30T18:12:41.322Z,6.00
2022-11-30T18:15:07.954Z,6.00
2022-11-30T18:17:34.625Z,6.00
2022-11-30T18:20:01.628Z,6.00
2022-11-30T18:22:28.684Z,6.00
2022-11-30T18:24:55.319Z,6.00
2022-11-30T18:27:22.049Z,6.00
2022-11-30T18:29:48.952Z,6.00
2022-11-30T18:32:15.681Z,6.00
2022-11-30T18:34:45.424Z,6.00
2022-11-30T18:37:12.300Z,6.00
2022-11-30T18:39:38.969Z,6.00
2022-11-30T18:42:05.660Z,6.00
2022-11-30T18:44:32.416Z,6.00
2022-11-30T18:46:59.147Z,6.00
2022-11-30T18:49:25.964Z,6.00
2022-11-30T18:51:53.090Z,5.90
2022-11-30T18:54:19.983Z,6.00
2022-11-30T18:56:46.695Z,6.00
2022-11-30T18:59:14.547Z,6.00
2022-11-30T19:01:41.534Z,6.00
2022-11-30T19:04:08.384Z,6.00
2022-11-30T19:06:35.176Z,6.10
2022-11-30T19:09:02.233Z,6.10
2022-11-30T19:11:28.971Z,6.10
2022-11-30T19:13:55.720Z,6.10
2022-11-30T19:16:22.416Z,6.20
2022-11-30T19:18:49.183Z,6.20
2022-11-30T19:21:15.878Z,6.20
2022-11-30T19:23:42.548Z,6.20
2022-11-30T19:26:10.104Z,6.20
2022-11-30T19:28:36.784Z,6.20
2022-11-30T19:31:03.595Z,6.20
2022-11-30T19:33:30.385Z,6.10
2022-11-30T19:35:57.311Z,6.10
2022-11-30T19:38:24.013Z,6.00
2022-11-30T19:40:50.700Z,5.90
2022-11-30T19:43:17.398Z,5.80
2022-11-30T19:45:44.166Z,5.70
2022-11-30T19:48:11.025Z,5.70
2022-11-30T19:50:37.810Z,5.60
2022-11-30T19:53:05.987Z,5.50
2022-11-30T19:55:32.740Z,5.50
2022-11-30T19:57:59.437Z,5.40
2022-11-30T20:00:26.556Z,5.30
2022-11-30T20:02:53.334Z,5.20
2022-11-30T20:05:20.138Z,5.10
2022-11-30T20:07:47.030Z,5.00
2022-11-30T20:10:13.898Z,4.90
2022-11-30T20:12:40.934Z,5.00
2022-11-30T20:15:07.626Z,4.90
2022-11-30T20:17:34.565Z,4.80
2022-11-30T20:20:01.271Z,4.80
2022-11-30T20:22:28.093Z,4.90
2022-11-30T20:24:54.890Z,5.00
2022-11-30T20:27:25.328Z,5.00
2022-11-30T20:29:52.071Z,5.10
2022-11-30T20:32:19.770Z,5.10
2022-11-30T20:34:46.697Z,5.10
2022-11-30T20:37:13.627Z,5.20
2022-11-30T20:39:45.831Z,5.20
2022-11-30T20:42:13.123Z,5.30
2022-11-30T20:44:39.933Z,5.40
2022-11-30T20:47:06.890Z,5.40
2022-11-30T20:49:33.643Z,5.40
2022-11-30T20:52:00.309Z,5.40
2022-11-30T20:54:29.915Z,5.40
2022-11-30T20:56:57.468Z,5.40
2022-11-30T20:59:26.637Z,5.50
2022-11-30T21:01:53.439Z,5.50
2022-11-30T21:04:21.049Z,5.50
2022-11-30T21:06:47.776Z,5.50
2022-11-30T21:09:14.517Z,5.40
2022-11-30T21:11:41.178Z,5.40
2022-11-30T21:14:07.801Z,5.30
2022-11-30T21:16:35.232Z,5.30
2022-11-30T21:19:02.209Z,5.30
2022-11-30T21:21:28.933Z,5.40
2022-11-30T21:23:55.668Z,5.40
2022-11-30T21:26:22.396Z,5.40
2022-11-30T21:28:49.031Z,5.40
2022-11-30T21:31:15.759Z,5.50
2022-11-30T21:33:47.051Z,5.50
2022-11-30T21:36:19.004Z,5.60
2022-11-30T21:38:45.861Z,5.60
2022-11-30T21:41:12.489Z,5.60
2022-11-30T21:43:39.236Z,5.60
2022-11-30T21:46:05.921Z,5.60
2022-11-30T21:48:32.626Z,5.60
2022-11-30T21:50:59.487Z,5.70
2022-11-30T21:53:26.111Z,5.70
2022-11-30T21:55:55.703Z,5.70
2022-11-30T21:58:22.640Z,5.80
2022-11-30T22:00:49.278Z,5.80
2022-11-30T22:03:19.485Z,5.90
2022-11-30T22:05:46.409Z,5.90
2022-11-30T22:08:13.017Z,6.00
2022-11-30T22:10:39.789Z,6.00
2022-11-30T22:13:06.481Z,6.00
2022-11-30T22:15:33.152Z,6.00
2022-11-30T22:17:59.809Z,6.10
2022-11-30T22:20:26.529Z,6.10
2022-11-30T22:22:53.182Z,6.10
2022-11-30T22:25:19.872Z,6.10
2022-11-30T22:27:47.885Z,6.10
2022-11-30T22:30:14.677Z,6.10
2022-11-30T22:32:43.594Z,6.10
2022-11-30T22:35:10.803Z,6.20
2022-11-30T22:37:37.472Z,6.10
2022-11-30T22:40:04.120Z,6.10
2022-11-30T22:42:30.823Z,6.10
2022-11-30T22:44:57.517Z,6.10
2022-11-30T22:47:24.164Z,6.20
2022-11-30T22:49:51.393Z,6.20
2022-11-30T22:52:18.313Z,6.20
2022-11-30T22:54:45.179Z,6.20
2022-11-30T22:57:11.936Z,6.20
2022-11-30T22:59:38.579Z,6.20
2022-11-30T23:02:05.346Z,6.30
2022-11-30T23:04:32.175Z,6.30
2022-11-30T23:06:58.892Z,6.30
2022-11-30T23:09:25.574Z,6.30
2022-11-30T23:11:52.790Z,6.30
2022-11-30T23:14:19.503Z,6.30
2022-11-30T23:16:46.313Z,6.30
2022-11-30T23:19:13.142Z,6.30
2022-11-30T23:21:42.001Z,6.30
2022-11-30T23:24:09.106Z,6.30
2022-11-30T23:26:36.179Z,6.40
2022-11-30T23:29:03.108Z,6.40
2022-11-30T23:31:34.037Z,6.40
2022-11-30T23:34:02.575Z,6.40
2022-11-30T23:36:29.414Z,6.40
2022-11-30T23:38:56.126Z,6.50
2022-11-30T23:41:22.940Z,6.50
2022-11-30T23:43:49.638Z,6.50
2022-11-30T23:46:16.313Z,6.50
2022-11-30T23:48:43.061Z,6.60
2022-11-30T23:51:09.742Z,6.60
2022-11-30T23:53:36.522Z,6.60
2022-11-30T23:56:03.875Z,6.60
2022-11-30T23:58:30.594Z,6.60
